CAY weather

Cayenne-Rochambeau Airport
Cayenne / Rochambeau, Cayenne, French Guiana

Public forecast

Using degrees Celsius for public forecast. Weather courtesy of forecast.io.

METAR (pilot weather report)

Retrieved 2019/09/22 13:30 UTC (13 minutes ago):

SOCA 221330Z AUTO 08007KT 030V150 9999 FEW029 BKN038 31/24 Q1013 NOSIG

TAF (pilot weather forecast)

Retrieved 2019/09/22 12:43 UTC (60 minutes ago):

TAF SOCA 221000Z 2212/2312 14006KT 9999 FEW020 FM221500 07010KT 9999 SCT035 FM222300 VRB02KT 9999 FEW020